Time;durP1;ratioP1;P1;durP2;ratioP2;P2;SDS_P1;SDS_P2;PMS_P1;PMS_P2;Temp;Humidity;BMP_temperature;BMP_pressure;BME280_temperature;BME280_humidity;BME280_pressure;Samples;Min_cycle;Max_cycle;Signal;HPM_P1;HPM_P2
2022/08/31 00:03:53;;;;;;;16.73;5.40;;;;;;;20.18;100.00;99500.07;1670947;85;21002;-72
2022/08/31 00:06:25;;;;;;;11.15;5.60;;;;;;;20.19;100.00;99502.28;1683295;83;21001;-75
2022/08/31 00:08:59;;;;;;;13.65;6.45;;;;;;;20.19;100.00;99500.30;1692450;83;21515;-72
2022/08/31 00:11:34;;;;;;;10.50;5.37;;;;;;;20.13;100.00;99508.03;1688309;83;21859;-73
2022/08/31 00:14:06;;;;;;;11.20;5.47;;;;;;;20.12;100.00;99506.41;1687709;84;20926;-74
2022/08/31 00:16:38;;;;;;;11.48;5.35;;;;;;;20.06;100.00;99503.96;1724339;83;21030;-74
2022/08/31 00:19:04;;;;;;;9.28;5.25;;;;;;;20.02;100.00;99499.50;1688702;84;21078;-73
2022/08/31 00:21:37;;;;;;;10.25;5.25;;;;;;;20.05;100.00;99505.75;1660693;84;21011;-73
2022/08/31 00:24:04;;;;;;;10.30;5.62;;;;;;;20.08;100.00;99504.19;1726206;83;21104;-74
2022/08/31 00:26:31;;;;;;;11.45;5.80;;;;;;;20.09;100.00;99505.20;1704164;83;20905;-71
2022/08/31 00:29:04;;;;;;;9.40;5.90;;;;;;;20.09;100.00;99503.80;1705323;83;21032;-73
2022/08/31 00:31:30;;;;;;;11.50;5.58;;;;;;;20.03;100.00;99506.11;1726264;83;21515;-75
2022/08/31 00:33:56;;;;;;;10.43;5.97;;;;;;;19.98;100.00;99503.66;1701665;83;21966;-74
2022/08/31 00:36:25;;;;;;;11.43;5.95;;;;;;;19.93;100.00;99502.61;1705466;83;21435;-71
2022/08/31 00:39:00;;;;;;;10.20;6.50;;;;;;;19.89;100.00;99497.59;1696010;83;21081;-73
2022/08/31 00:41:29;;;;;;;10.13;6.22;;;;;;;19.88;100.00;99504.36;1684682;83;21115;-72
2022/08/31 00:44:01;;;;;;;13.70;6.67;;;;;;;19.86;100.00;99501.95;1709858;83;21474;-70
2022/08/31 00:46:39;;;;;;;11.90;6.53;;;;;;;19.85;100.00;99504.55;1683808;83;21556;-74
2022/08/31 00:49:23;;;;;;;8.58;5.47;;;;;;;19.89;100.00;99504.59;1692383;83;20988;-71
2022/08/31 00:51:58;;;;;;;11.97;6.22;;;;;;;19.85;100.00;99503.15;1696608;83;21008;-75
2022/08/31 00:54:45;;;;;;;18.37;6.50;;;;;;;19.94;100.00;99509.22;1664248;84;20985;-75
2022/08/31 00:57:17;;;;;;;10.20;5.78;;;;;;;20.01;100.00;99509.09;1671056;84;21051;-74
2022/08/31 00:59:46;;;;;;;10.68;5.87;;;;;;;19.98;100.00;99511.27;1675166;85;21024;-74
2022/08/31 01:02:18;;;;;;;11.35;6.20;;;;;;;19.92;100.00;99509.41;1671042;84;20969;-72
2022/08/31 01:04:57;;;;;;;10.90;5.92;;;;;;;19.87;100.00;99509.16;1676203;84;21000;-72
2022/08/31 01:07:28;;;;;;;8.85;5.35;;;;;;;19.86;100.00;99509.55;1678677;84;21556;-72
2022/08/31 01:09:57;;;;;;;12.70;6.50;;;;;;;19.83;100.00;99510.52;1656302;86;21447;-74
2022/08/31 01:12:27;;;;;;;12.03;6.25;;;;;;;19.78;100.00;99511.45;1698115;84;21118;-74
2022/08/31 01:15:00;;;;;;;10.90;6.60;;;;;;;19.73;100.00;99509.81;1668228;85;21410;-72
2022/08/31 01:17:36;;;;;;;10.63;6.22;;;;;;;19.70;100.00;99518.97;1666580;85;20971;-72
2022/08/31 01:20:25;;;;;;;7.92;5.28;;;;;;;19.69;100.00;99511.17;1678287;84;20936;-74
2022/08/31 01:23:26;;;;;;;11.18;6.55;;;;;;;19.69;100.00;99519.55;1683460;84;21418;-75
2022/08/31 01:25:56;;;;;;;7.85;5.50;;;;;;;19.58;100.00;99515.84;1675910;84;21068;-71
2022/08/31 01:28:28;;;;;;;10.32;6.08;;;;;;;19.61;100.00;99513.69;1652236;86;21278;-71
2022/08/31 01:31:09;;;;;;;10.70;6.40;;;;;;;19.61;100.00;99513.69;1679556;84;20940;-69
2022/08/31 01:33:40;;;;;;;12.53;6.57;;;;;;;19.59;100.00;99511.86;1677557;84;20984;-71
2022/08/31 01:36:18;;;;;;;11.00;5.75;;;;;;;19.57;100.00;99511.42;1664681;85;21034;-74
2022/08/31 01:38:48;;;;;;;13.10;6.83;;;;;;;19.53;100.00;99521.16;1644259;84;20965;-73
2022/08/31 01:41:19;;;;;;;9.85;6.08;;;;;;;19.53;100.00;99517.59;1680431;84;20973;-74
2022/08/31 01:43:51;;;;;;;13.53;6.45;;;;;;;19.47;100.00;99512.92;1672696;84;20944;-73
2022/08/31 01:46:18;;;;;;;12.47;5.85;;;;;;;19.49;100.00;99518.94;1679433;84;20948;-74
2022/08/31 01:48:48;;;;;;;10.50;6.12;;;;;;;19.47;100.00;99515.72;1675558;84;21643;-71
2022/08/31 01:51:19;;;;;;;10.43;6.50;;;;;;;19.47;100.00;99518.50;1674901;85;21044;-68
2022/08/31 01:53:48;;;;;;;11.10;6.20;;;;;;;19.48;100.00;99516.53;1677602;84;21174;-70
2022/08/31 01:56:33;;;;;;;10.05;6.12;;;;;;;19.45;100.00;99511.91;1694048;84;21070;-74
2022/08/31 01:59:08;;;;;;;8.70;6.15;;;;;;;19.40;100.00;99513.64;1691610;84;20895;-72
2022/08/31 02:04:52;;;;;;;12.70;6.65;;;;;;;19.33;100.00;99505.98;1695164;84;21042;-75
2022/08/31 02:07:22;;;;;;;12.88;6.20;;;;;;;19.29;100.00;99509.92;1695651;83;21074;-70
2022/08/31 02:09:55;;;;;;;9.78;5.75;;;;;;;19.24;100.00;99503.27;1696078;83;21201;-71
2022/08/31 02:12:24;;;;;;;12.60;6.17;;;;;;;19.22;100.00;99495.28;1677845;84;21051;-72
2022/08/31 02:14:54;;;;;;;10.08;5.95;;;;;;;19.27;100.00;99500.53;1646602;85;20987;-71
2022/08/31 02:17:27;;;;;;;11.15;6.55;;;;;;;19.30;100.00;99498.37;1692782;84;21058;-71
2022/08/31 02:19:55;;;;;;;11.08;6.08;;;;;;;19.29;100.00;99498.17;1656593;86;21287;-71
2022/08/31 02:22:23;;;;;;;13.83;6.12;;;;;;;19.25;100.00;99496.49;1695927;83;21868;-71
2022/08/31 02:24:57;;;;;;;11.40;6.55;;;;;;;19.23;100.00;99493.30;1696720;84;20911;-71
2022/08/31 02:27:27;;;;;;;15.53;6.17;;;;;;;19.19;100.00;99492.64;1693781;84;21140;-74
2022/08/31 02:29:54;;;;;;;15.50;6.45;;;;;;;19.16;100.00;99492.01;1673226;84;21018;-70
2022/08/31 02:32:23;;;;;;;12.75;5.85;;;;;;;19.19;100.00;99496.05;1696829;84;21616;-73
2022/08/31 02:34:54;;;;;;;11.40;5.75;;;;;;;19.16;100.00;99490.61;1695389;84;20922;-73
2022/08/31 02:37:24;;;;;;;10.45;5.20;;;;;;;19.13;100.00;99491.37;1656836;84;21005;-74
2022/08/31 02:39:52;;;;;;;10.90;5.15;;;;;;;19.08;100.00;99495.87;1648637;84;21075;-72
2022/08/31 02:42:29;;;;;;;14.07;5.62;;;;;;;19.08;100.00;99494.47;1675440;84;20968;-70
2022/08/31 02:45:05;;;;;;;12.60;6.53;;;;;;;19.11;100.00;99496.53;1668529;84;21516;-72
2022/08/31 02:47:44;;;;;;;13.10;6.03;;;;;;;19.12;100.00;99497.34;1680830;84;20952;-72
2022/08/31 02:50:48;;;;;;;10.08;5.05;;;;;;;19.11;100.00;99500.72;1645080;85;21095;-73
2022/08/31 02:53:22;;;;;;;8.33;5.43;;;;;;;19.06;100.00;99502.41;1637972;86;21487;-72
2022/08/31 02:56:02;;;;;;;12.43;6.17;;;;;;;19.06;100.00;99499.04;1678031;84;20988;-73
2022/08/31 02:58:31;;;;;;;9.65;6.20;;;;;;;19.09;100.00;99503.05;1683795;84;21202;-72
2022/08/31 03:01:00;;;;;;;7.78;5.17;;;;;;;19.07;100.00;99502.03;1672785;84;21617;-73
2022/08/31 03:03:39;;;;;;;7.83;4.87;;;;;;;19.06;100.00;99501.02;1681312;84;20965;-74
2022/08/31 03:06:19;;;;;;;12.33;5.72;;;;;;;19.05;100.00;99502.22;1670076;84;21027;-71
2022/08/31 03:08:53;;;;;;;10.53;6.20;;;;;;;19.05;100.00;99499.42;1671312;84;21522;-72
2022/08/31 03:11:36;;;;;;;12.23;6.30;;;;;;;19.04;100.00;99490.84;1678586;84;21100;-71
2022/08/31 03:14:38;;;;;;;9.03;5.62;;;;;;;19.09;100.00;99497.46;1675602;84;20965;-69
2022/08/31 03:17:38;;;;;;;9.58;5.67;;;;;;;19.16;100.00;99494.80;1669482;84;21064;-71
2022/08/31 03:23:16;;;;;;;12.15;6.25;;;;;;;19.13;100.00;99489.98;1650754;86;21184;-72
2022/08/31 03:25:55;;;;;;;14.07;6.72;;;;;;;19.08;100.00;99495.28;1646997;86;21254;-70
2022/08/31 03:28:43;;;;;;;9.55;7.15;;;;;;;19.10;100.00;99494.91;1627762;86;21124;-72
2022/08/31 03:34:48;;;;;;;11.73;5.80;;;;;;;19.20;100.00;99498.45;1627040;87;21106;-70
2022/08/31 03:37:35;;;;;;;9.03;5.20;;;;;;;19.25;100.00;99500.69;1627485;87;21084;-71
2022/08/31 03:40:47;;;;;;;10.10;6.03;;;;;;;19.25;100.00;99497.89;1634897;87;21047;-70
2022/08/31 03:43:49;;;;;;;10.45;6.22;;;;;;;19.23;100.00;99496.88;1634922;87;21062;-73
2022/08/31 03:46:49;;;;;;;13.28;5.80;;;;;;;19.24;100.00;99496.30;1647155;85;21096;-69
2022/08/31 03:52:38;;;;;;;13.62;7.35;;;;;;;19.33;100.00;99505.17;1673508;84;21065;-73
2022/08/31 03:55:27;;;;;;;14.28;6.67;;;;;;;19.36;100.00;99507.81;1673026;84;21100;-71
2022/08/31 03:58:04;;;;;;;12.82;6.70;;;;;;;19.41;100.00;99510.27;1671554;84;20878;-70
2022/08/31 04:00:54;;;;;;;11.18;6.37;;;;;;;19.44;100.00;99509.50;1640385;86;20929;-74
2022/08/31 04:03:28;;;;;;;9.15;6.03;;;;;;;19.48;100.00;99509.55;1651204;86;21030;-73
2022/08/31 04:06:18;;;;;;;11.28;5.90;;;;;;;19.54;100.00;99503.23;1689605;84;20999;-70
2022/08/31 04:09:12;;;;;;;16.02;6.05;;;;;;;19.60;100.00;99503.70;1620656;87;20968;-71
2022/08/31 04:11:47;;;;;;;14.05;6.47;;;;;;;19.66;100.00;99504.95;1605734;87;20974;-72
2022/08/31 04:14:54;;;;;;;10.68;5.50;;;;;;;19.72;100.00;99506.80;1673939;84;21087;-69
2022/08/31 04:17:32;;;;;;;13.60;6.28;;;;;;;19.82;100.00;99512.31;1687828;84;21086;-74
2022/08/31 04:20:39;;;;;;;6.40;4.87;;;;;;;19.90;100.00;99512.59;1691031;84;21031;-73
2022/08/31 04:23:28;;;;;;;9.48;5.55;;;;;;;19.99;100.00;99509.48;1694828;83;21110;-71
2022/08/31 04:26:19;;;;;;;12.07;5.95;;;;;;;20.06;100.00;99516.55;1690287;84;20983;-73
2022/08/31 04:28:52;;;;;;;9.58;6.03;;;;;;;20.11;100.00;99517.39;1653491;86;21129;-73
2022/08/31 04:31:42;;;;;;;10.72;5.67;;;;;;;20.12;100.00;99514.20;1646098;86;21194;-74
2022/08/31 04:34:18;;;;;;;9.75;5.85;;;;;;;20.16;100.00;99514.25;1657175;86;20981;-71
2022/08/31 04:37:01;;;;;;;10.82;5.20;;;;;;;20.22;100.00;99513.28;1641746;86;21501;-71
2022/08/31 04:39:56;;;;;;;11.30;5.40;;;;;;;20.24;100.00;99513.70;1653061;86;21501;-72
2022/08/31 04:42:37;;;;;;;9.43;5.10;;;;;;;20.33;100.00;99521.77;1642171;86;21090;-73
2022/08/31 04:45:32;;;;;;;7.90;5.50;;;;;;;20.37;100.00;99521.22;1634476;86;21623;-73
2022/08/31 04:48:18;;;;;;;6.55;4.87;;;;;;;20.41;100.00;99518.65;1661881;86;21501;-75
2022/08/31 04:51:20;;;;;;;8.68;5.05;;;;;;;20.48;100.00;99528.27;1659064;86;21204;-74
2022/08/31 04:54:03;;;;;;;13.58;5.17;;;;;;;20.54;100.00;99528.11;1664425;84;21078;-75
2022/08/31 04:56:52;;;;;;;7.12;4.67;;;;;;;20.57;100.00;99529.34;1679400;84;21397;-74
2022/08/31 04:59:35;;;;;;;7.25;5.08;;;;;;;20.57;100.00;99527.36;1650647;85;21076;-70
2022/08/31 05:02:31;;;;;;;13.50;5.40;;;;;;;20.58;100.00;99527.55;1671765;84;21080;-72
2022/08/31 05:05:21;;;;;;;6.92;5.20;;;;;;;20.65;100.00;99525.41;1671298;84;21434;-71
2022/08/31 05:08:03;;;;;;;13.10;5.60;;;;;;;20.64;100.00;99523.19;1650629;85;21099;-70
2022/08/31 05:10:52;;;;;;;10.18;5.62;;;;;;;20.63;100.00;99527.20;1671596;85;21080;-71
2022/08/31 05:13:34;;;;;;;12.50;5.60;;;;;;;20.63;100.00;99529.99;1648646;86;20984;-73
2022/08/31 05:16:19;;;;;;;11.12;4.70;;;;;;;20.69;100.00;99526.24;1678715;84;20880;-71
2022/08/31 05:19:09;;;;;;;7.90;4.10;;;;;;;20.77;100.00;99530.69;1682480;84;20996;-74
2022/08/31 05:21:57;;;;;;;10.18;4.15;;;;;;;20.87;100.00;99526.94;1696164;84;20916;-72
2022/08/31 05:24:37;;;;;;;7.22;4.80;;;;;;;20.99;100.00;99530.03;1695366;84;20899;-71
2022/08/31 05:27:14;;;;;;;13.58;5.17;;;;;;;21.11;100.00;99531.70;1690033;84;21115;-74
2022/08/31 05:29:45;;;;;;;7.30;5.22;;;;;;;21.22;100.00;99531.77;1687729;84;21040;-70
2022/08/31 05:32:21;;;;;;;11.20;5.58;;;;;;;21.33;100.00;99528.41;1693530;84;21095;-71
2022/08/31 05:35:01;;;;;;;9.63;5.12;;;;;;;21.41;100.00;99527.82;1660777;84;21519;-72
2022/08/31 05:37:29;;;;;;;11.38;5.70;;;;;;;21.50;100.00;99527.45;1671665;84;20979;-73
2022/08/31 05:43:16;;;;;;;18.42;5.37;;;;;;;21.71;100.00;99523.12;1695682;84;20951;-72
2022/08/31 05:45:58;;;;;;;12.53;5.08;;;;;;;21.84;100.00;99525.78;1669653;84;21617;-71
2022/08/31 05:51:36;;;;;;;7.10;4.40;;;;;;;21.98;100.00;99528.41;1673297;85;21028;-73
2022/08/31 05:54:28;;;;;;;6.97;4.50;;;;;;;22.09;100.00;99522.82;1668533;84;21140;-72
2022/08/31 05:57:07;;;;;;;7.20;4.80;;;;;;;22.15;100.00;99518.41;1661431;84;21244;-73
2022/08/31 05:59:45;;;;;;;10.53;5.08;;;;;;;22.21;100.00;99525.83;1652508;84;21082;-75
2022/08/31 06:02:19;;;;;;;8.63;4.95;;;;;;;22.25;100.00;99523.22;1691404;84;20974;-71
2022/08/31 06:04:45;;;;;;;9.70;5.62;;;;;;;22.31;100.00;99520.83;1679080;84;20954;-72
2022/08/31 06:07:19;;;;;;;9.45;5.12;;;;;;;22.37;100.00;99524.83;1647923;84;20960;-72
2022/08/31 06:09:56;;;;;;;10.72;6.17;;;;;;;22.46;100.00;99522.21;1676598;84;21177;-73
2022/08/31 06:12:44;;;;;;;8.43;4.72;;;;;;;22.56;100.00;99527.61;1659303;86;21073;-73
2022/08/31 06:18:35;;;;;;;8.40;4.33;;;;;;;22.70;100.00;99517.00;1658395;85;21032;-71
2022/08/31 06:21:11;;;;;;;10.03;4.15;;;;;;;22.80;100.00;99513.97;1665378;84;20944;-72
2022/08/31 06:23:41;;;;;;;6.80;3.52;;;;;;;22.90;100.00;99515.95;1669235;85;21066;-72
2022/08/31 06:26:16;;;;;;;14.55;4.37;;;;;;;23.00;100.00;99517.12;1673267;85;21057;-72
2022/08/31 06:28:48;;;;;;;6.90;3.70;;;;;;;23.09;100.00;99513.30;1648928;85;21615;-71
2022/08/31 06:31:31;;;;;;;9.43;4.08;;;;;;;23.16;100.00;99520.89;1672503;85;20963;-71
2022/08/31 06:34:00;;;;;;;5.60;2.65;;;;;;;23.19;100.00;99520.08;1676636;85;20975;-74
2022/08/31 06:36:43;;;;;;;;;;;;;;;23.24;100.00;99523.06;1718567;80;21562;-72
2022/08/31 06:39:16;;;;;;;7.62;2.70;;;;;;;23.31;100.00;99521.63;1742084;81;21277;-74
2022/08/31 06:41:54;;;;;;;7.90;3.30;;;;;;;23.41;100.00;99520.61;1736725;81;21633;-74
2022/08/31 06:44:51;;;;;;;6.58;3.00;;;;;;;23.50;100.00;99523.79;1747973;81;20969;-71
2022/08/31 06:47:21;;;;;;;4.90;3.30;;;;;;;23.62;100.00;99525.33;1749056;81;21054;-74
2022/08/31 06:49:53;;;;;;;6.62;3.22;;;;;;;23.68;100.00;99517.25;1723746;81;21058;-72
2022/08/31 06:52:20;;;;;;;15.75;3.00;;;;;;;23.67;100.00;99519.88;1695260;83;22266;-71
2022/08/31 06:54:50;;;;;;;5.08;2.70;;;;;;;23.71;100.00;99514.42;1748236;81;20947;-69
2022/08/31 06:57:40;;;;;;;4.00;2.85;;;;;;;23.81;100.00;99521.21;1721986;81;21127;-69
2022/08/31 07:00:32;;;;;;;4.70;2.98;;;;;;;23.95;100.00;99521.70;1735196;81;20946;-73
2022/08/31 07:05:57;;;;;;;5.62;2.58;;;;;;;24.17;100.00;99518.75;1737435;81;21548;-72
2022/08/31 07:08:30;;;;;;;8.25;3.12;;;;;;;24.28;100.00;99524.31;1684541;83;21126;-71
2022/08/31 07:11:25;;;;;;;9.08;2.40;;;;;;;24.33;100.00;99527.27;1723806;81;21487;-71
2022/08/31 07:14:00;;;;;;;8.48;2.85;;;;;;;24.39;100.00;99525.63;1744169;81;20955;-75
2022/08/31 07:16:33;;;;;;;2.98;1.90;;;;;;;24.45;100.00;99520.34;1750050;81;21086;-71
2022/08/31 07:19:05;;;;;;;3.83;1.82;;;;;;;24.47;100.00;99515.09;1697297;83;20983;-70
2022/08/31 07:21:42;;;;;;;;;;;;;;;24.52;100.00;99518.88;1747446;81;21011;-73
2022/08/31 07:24:12;;;;;;;3.87;2.15;;;;;;;24.62;100.00;99520.58;1741059;81;20180;-71
2022/08/31 07:26:56;;;;;;;4.92;3.02;;;;;;;24.70;100.00;99524.95;1689823;83;20932;-74
2022/08/31 07:29:29;;;;;;;5.60;2.55;;;;;;;24.80;100.00;99519.79;1740375;81;20974;-72
2022/08/31 07:31:58;;;;;;;4.28;2.25;;;;;;;24.92;100.00;99524.12;1732542;81;21157;-72
2022/08/31 07:34:27;;;;;;;7.33;1.87;;;;;;;25.04;100.00;99527.01;1719673;81;21022;-72
2022/08/31 07:42:27;;;;;;;3.75;1.42;;;;;;;25.53;100.00;99528.84;1686260;83;20932;-71
2022/08/31 07:44:58;;;;;;;3.52;1.47;;;;;;;25.56;100.00;99525.77;1736352;81;21210;-73
2022/08/31 07:47:34;;;;;;;6.03;1.60;;;;;;;25.57;100.00;99516.71;1746322;81;21492;-74
2022/08/31 07:50:02;;;;;;;6.25;1.70;;;;;;;25.62;100.00;99519.06;1750181;81;20955;-73
2022/08/31 07:52:51;;;;;;;7.15;1.67;;;;;;;25.72;100.00;99515.32;1729396;82;20968;-72
2022/08/31 07:55:24;;;;;;;5.05;1.67;;;;;;;25.88;100.00;99515.27;1739999;81;20939;-75
2022/08/31 07:57:58;;;;;;;2.45;1.47;;;;;;;25.96;100.00;99518.20;1752267;81;22177;-74
2022/08/31 08:00:48;;;;;;;2.27;1.40;;;;;;;25.93;100.00;99522.48;1749166;82;21161;-72
2022/08/31 08:03:21;;;;;;;3.22;1.30;;;;;;;25.81;100.00;99513.99;1748377;81;20980;-75
2022/08/31 08:06:17;;;;;;;3.20;1.35;;;;;;;25.72;100.00;99508.88;1741006;81;20983;-73
2022/08/31 08:09:06;;;;;;;1.30;1.20;;;;;;;25.86;100.00;99509.28;1745473;82;21587;-72
2022/08/31 08:11:44;;;;;;;4.60;1.75;;;;;;;26.03;100.00;99516.48;1679074;82;20960;-71
2022/08/31 08:14:19;;;;;;;4.35;1.65;;;;;;;26.18;100.00;99507.16;1705356;83;20944;-74
2022/08/31 08:16:51;;;;;;;1.72;1.10;;;;;;;26.20;100.00;99509.76;1720398;82;20984;-72
2022/08/31 08:19:35;;;;;;;2.65;1.20;;;;;;;26.16;100.00;99505.37;1747144;81;20932;-74
2022/08/31 08:22:04;;;;;;;3.47;1.80;;;;;;;25.99;100.00;99504.64;1701514;83;21135;-71
2022/08/31 08:24:38;;;;;;;2.95;1.30;;;;;;;25.81;100.00;99504.12;1741528;81;22746;-69
2022/08/31 08:27:21;;;;;;;3.60;1.90;;;;;;;25.69;100.00;99493.58;1677110;83;20965;-72
2022/08/31 08:29:52;;;;;;;2.75;1.60;;;;;;;25.70;100.00;99488.75;1731121;81;21011;-71
2022/08/31 08:32:33;;;;;;;4.62;1.95;;;;;;;25.89;100.00;99488.67;1706701;81;21031;-72
2022/08/31 08:38:02;;;;;;;6.08;1.85;;;;;;;26.38;100.00;99491.73;1699632;83;20978;-77
2022/08/31 08:40:41;;;;;;;2.15;1.47;;;;;;;26.48;100.00;99485.09;1695482;83;21016;-77
2022/08/31 08:43:15;;;;;;;5.47;1.62;;;;;;;26.40;100.00;99487.06;1702218;83;21194;-76
2022/08/31 08:45:48;;;;;;;3.95;2.15;;;;;;;26.34;100.00;99488.19;1705914;83;20996;-75
2022/08/31 08:48:21;;;;;;;4.25;1.72;;;;;;;26.22;100.00;99493.17;1684867;84;21593;-78
2022/08/31 08:50:56;;;;;;;4.72;1.92;;;;;;;26.24;100.00;99486.48;1690869;83;22184;-76
2022/08/31 08:53:41;;;;;;;3.95;1.47;;;;;;;26.41;100.00;99478.16;1699564;82;21033;-75
2022/08/31 08:56:21;;;;;;;2.55;1.45;;;;;;;26.60;100.00;99473.78;1694058;83;21092;-70
2022/08/31 08:58:59;;;;;;;3.40;1.82;;;;;;;26.67;100.00;99471.44;1722047;81;38825;-71
2022/08/31 09:01:30;;;;;;;1.80;1.37;;;;;;;26.55;100.00;99477.70;1731480;81;21444;-73
2022/08/31 09:04:23;;;;;;;2.40;1.60;;;;;;;26.40;100.00;99481.41;1689423;83;21017;-73
2022/08/31 09:07:51;;;;;;;4.92;1.77;;;;;;;26.28;100.00;99482.80;1690432;83;21064;-71
2022/08/31 09:10:30;;;;;;;6.20;1.85;;;;;;;26.19;100.00;99486.16;1694505;83;20925;-73
2022/08/31 09:13:38;;;;;;;3.00;1.70;;;;;;;26.34;100.00;99483.95;1658873;85;21013;-75
2022/08/31 09:16:21;;;;;;;2.80;1.45;;;;;;;26.55;100.00;99472.06;1652417;85;21009;-72
2022/08/31 09:19:06;;;;;;;3.20;1.60;;;;;;;26.76;100.00;99470.87;1652736;85;21027;-74
2022/08/31 09:21:46;;;;;;;6.83;1.50;;;;;;;26.89;100.00;99481.50;1667731;85;21068;-72
2022/08/31 09:24:21;;;;;;;4.65;1.40;;;;;;;26.81;100.00;99480.86;1664450;85;21076;-73
2022/08/31 09:27:16;;;;;;;3.05;1.07;;;;;;;26.66;100.00;99483.98;1673235;85;20984;-76
2022/08/31 09:32:09;;;;;;;2.12;1.52;;;;;;;26.42;100.00;99480.38;1721601;83;21082;-70
2022/08/31 09:34:48;;;;;;;2.98;1.50;;;;;;;26.30;100.00;99486.80;1713029;82;21199;-75
2022/08/31 09:37:25;;;;;;;4.65;2.22;;;;;;;26.33;100.00;99481.73;1729806;81;21595;-76
2022/08/31 09:39:54;;;;;;;3.75;1.60;;;;;;;26.54;100.00;99475.52;1743166;81;21019;-71
2022/08/31 09:42:39;;;;;;;3.72;2.20;;;;;;;26.81;100.00;99466.73;1688347;83;21076;-73
2022/08/31 09:45:34;;;;;;;5.60;1.82;;;;;;;27.03;100.00;99466.32;1714896;82;21381;-73
2022/08/31 09:48:06;;;;;;;6.05;1.17;;;;;;;27.13;100.00;99468.73;1716014;81;21047;-71
2022/08/31 09:50:48;;;;;;;3.02;1.57;;;;;;;27.09;100.00;99461.77;1690677;82;20988;-73
2022/08/31 09:56:22;;;;;;;2.00;1.15;;;;;;;27.45;100.00;99460.16;1749239;81;21032;-71
2022/08/31 09:59:03;;;;;;;3.45;1.67;;;;;;;27.70;100.00;99458.84;1706564;83;21185;-74
2022/08/31 10:01:44;;;;;;;6.10;1.30;;;;;;;27.68;100.00;99462.08;1739752;82;21075;-75
2022/08/31 10:04:28;;;;;;;2.05;1.30;;;;;;;27.58;99.84;99463.12;1702870;83;21004;-77
2022/08/31 10:07:42;;;;;;;2.87;1.37;;;;;;;27.68;99.81;99458.45;1707517;83;20985;-71
2022/08/31 10:10:24;;;;;;;3.35;1.30;;;;;;;27.81;100.00;99465.64;1695711;83;20957;-72
2022/08/31 10:13:23;;;;;;;2.33;1.10;;;;;;;27.77;100.00;99462.92;1744957;81;21246;-77
2022/08/31 10:16:01;;;;;;;8.75;1.27;;;;;;;27.64;94.41;99464.80;1741693;81;21083;-75
2022/08/31 10:19:29;;;;;;;5.97;1.00;;;;;;;27.51;93.49;99459.84;1742854;81;20937;-74
2022/08/31 10:22:03;;;;;;;5.03;1.30;;;;;;;27.39;94.59;99454.25;1690943;83;20956;-76
2022/08/31 10:25:11;;;;;;;2.52;1.42;;;;;;;27.37;98.25;99453.89;1701645;82;20994;-72
2022/08/31 10:27:56;;;;;;;4.37;1.65;;;;;;;27.30;97.02;99457.67;1704903;83;21175;-74
2022/08/31 10:30:39;;;;;;;2.60;1.30;;;;;;;27.23;98.30;99462.06;1697491;83;21047;-74
2022/08/31 10:33:22;;;;;;;5.08;1.22;;;;;;;27.18;96.22;99458.33;1698455;83;21025;-75
2022/08/31 10:35:59;;;;;;;3.75;1.10;;;;;;;27.04;95.57;99458.05;1719718;82;21476;-74
2022/08/31 10:38:43;;;;;;;1.62;1.45;;;;;;;26.97;98.81;99457.55;1746967;81;21488;-72
2022/08/31 10:41:38;;;;;;;2.42;1.60;;;;;;;27.03;100.00;99449.36;1728538;81;20946;-71
2022/08/31 10:44:25;;;;;;;3.62;1.87;;;;;;;27.12;100.00;99451.00;1697034;83;20889;-72
2022/08/31 10:47:04;;;;;;;1.92;1.20;;;;;;;27.29;100.00;99446.80;1743399;82;21397;-74
2022/08/31 10:49:34;;;;;;;3.98;1.50;;;;;;;27.50;100.00;99446.14;1702353;82;21516;-72
2022/08/31 10:52:17;;;;;;;2.30;1.22;;;;;;;27.75;100.00;99445.58;1687065;82;20941;-73
2022/08/31 10:55:06;;;;;;;1.55;1.30;;;;;;;28.02;98.48;99445.13;1696829;83;21249;-71
2022/08/31 10:58:12;;;;;;;1.72;1.40;;;;;;;28.18;96.91;99447.94;1696160;83;21083;-74
2022/08/31 11:01:04;;;;;;;1.50;1.30;;;;;;;28.25;94.79;99442.70;1741654;81;21063;-76
2022/08/31 11:04:24;;;;;;;3.55;1.45;;;;;;;28.19;96.94;99449.55;1728835;81;20944;-75
2022/08/31 11:07:10;;;;;;;4.80;1.50;;;;;;;28.12;93.47;99439.81;1691814;83;20997;-74
2022/08/31 11:10:27;;;;;;;3.12;1.62;;;;;;;28.15;93.83;99437.50;1683771;83;21151;-76
2022/08/31 11:13:15;;;;;;;5.67;1.65;;;;;;;28.23;92.28;99441.58;1733646;81;20903;-72
2022/08/31 11:16:12;;;;;;;3.95;2.10;;;;;;;28.03;93.31;99443.91;1696366;81;21076;-73
2022/08/31 11:18:56;;;;;;;6.85;2.05;;;;;;;27.85;93.91;99445.14;1690095;83;20969;-70
2022/08/31 11:25:29;;;;;;;3.30;1.75;;;;;;;27.45;94.96;99444.61;1667378;85;21032;-70
2022/08/31 11:28:10;;;;;;;6.33;1.67;;;;;;;27.16;93.15;99442.45;1671884;85;21592;-74
2022/08/31 11:30:45;;;;;;;2.92;2.12;;;;;;;26.89;94.37;99446.19;1663652;85;21092;-72
2022/08/31 11:33:18;;;;;;;2.98;2.20;;;;;;;26.72;96.50;99440.47;1641878;85;21640;-72
2022/08/31 11:36:07;;;;;;;5.53;2.70;;;;;;;26.68;99.03;99442.58;1646744;85;21008;-74
2022/08/31 11:39:06;;;;;;;11.28;3.17;;;;;;;26.69;100.00;99440.73;1661133;85;21005;-74
2022/08/31 11:41:53;;;;;;;5.22;2.50;;;;;;;26.61;99.63;99442.88;1690394;83;21230;-74
2022/08/31 11:45:01;;;;;;;5.58;1.98;;;;;;;26.56;100.00;99438.38;1737802;82;20943;-74
2022/08/31 11:47:37;;;;;;;3.15;1.52;;;;;;;26.54;100.00;99438.80;1705268;82;21075;-75
2022/08/31 11:54:11;;;;;;;4.95;1.70;;;;;;;26.64;96.48;99435.59;1686744;82;21031;-75
2022/08/31 11:56:54;;;;;;;2.55;1.35;;;;;;;26.86;98.60;99425.26;1684321;83;20949;-73
2022/08/31 11:59:46;;;;;;;3.83;2.05;;;;;;;27.09;98.85;99429.27;1661860;83;21531;-71
2022/08/31 12:02:33;;;;;;;3.10;1.82;;;;;;;27.32;94.50;99418.45;1724675;81;21109;-72
2022/08/31 12:05:23;;;;;;;2.60;1.90;;;;;;;27.50;95.30;99417.86;1694647;83;20978;-74
2022/08/31 12:08:00;;;;;;;3.95;2.20;;;;;;;27.46;90.70;99415.92;1684958;82;21257;-70
2022/08/31 12:11:21;;;;;;;5.75;2.25;;;;;;;27.42;89.34;99410.95;1730951;82;21441;-73
2022/08/31 12:14:28;;;;;;;3.00;1.72;;;;;;;27.31;90.76;99418.89;1728886;81;21138;-72
2022/08/31 12:20:06;;;;;;;3.25;2.27;;;;;;;27.23;95.82;99416.83;1717716;82;21127;-75
2022/08/31 12:23:37;;;;;;;2.27;1.72;;;;;;;27.30;98.07;99413.84;1680079;84;21082;-73
2022/08/31 12:26:41;;;;;;;5.95;1.87;;;;;;;27.38;95.82;99420.13;1680438;84;21015;-72
2022/08/31 12:29:31;;;;;;;2.98;1.57;;;;;;;27.39;93.70;99411.03;1687005;83;21540;-72
2022/08/31 12:32:34;;;;;;;1.20;1.00;;;;;;;27.34;89.81;99408.11;1693378;82;20974;-70
2022/08/31 12:35:27;;;;;;;5.40;1.70;;;;;;;27.45;87.85;99408.65;1700621;82;20956;-71
2022/08/31 12:38:25;;;;;;;2.75;1.60;;;;;;;27.55;91.77;99400.37;1747866;81;21153;-71
2022/08/31 12:41:02;;;;;;;1.67;1.50;;;;;;;27.72;91.66;99404.03;1687183;83;21419;-74
2022/08/31 12:43:38;;;;;;;3.17;2.22;;;;;;;27.83;89.38;99407.98;1715491;81;21653;-74
2022/08/31 12:49:24;;;;;;;2.77;1.60;;;;;;;27.59;88.50;99414.59;1713254;82;21090;-74
2022/08/31 12:52:28;;;;;;;4.80;1.70;;;;;;;27.36;86.54;99418.38;1730623;81;20912;-71
2022/08/31 12:55:23;;;;;;;1.47;1.37;;;;;;;27.03;87.03;99422.52;1707167;81;21106;-72
2022/08/31 12:58:26;;;;;;;4.33;1.50;;;;;;;26.76;86.86;99415.78;1718405;81;21023;-71
2022/08/31 13:01:12;;;;;;;3.37;1.55;;;;;;;26.61;87.71;99423.11;1704996;83;21021;-69
2022/08/31 13:04:00;;;;;;;3.37;1.67;;;;;;;26.61;87.84;99424.52;1696117;83;21000;-71
2022/08/31 13:06:39;;;;;;;3.67;1.72;;;;;;;26.63;89.26;99423.31;1711900;82;21249;-73
2022/08/31 13:09:39;;;;;;;2.60;1.80;;;;;;;26.74;89.32;99417.62;1689696;84;21004;-72
2022/08/31 13:12:23;;;;;;;7.92;1.62;;;;;;;26.81;89.84;99413.05;1702966;81;21023;-73
2022/08/31 13:15:01;;;;;;;4.33;1.73;;;;;;;27.01;92.25;99415.05;1724673;82;20952;-70
2022/08/31 13:17:39;;;;;;;2.55;1.30;;;;;;;27.12;91.26;99411.42;1726336;81;21063;-72
2022/08/31 13:20:11;;;;;;;2.58;1.42;;;;;;;27.21;87.91;99406.59;1711584;82;20948;-71
2022/08/31 13:23:05;;;;;;;4.83;1.60;;;;;;;27.26;84.94;99413.75;1712659;82;21545;-68
2022/08/31 13:25:43;;;;;;;2.27;1.30;;;;;;;27.20;83.73;99408.62;1710299;82;21270;-74